Time;durP1;ratioP1;P1;durP2;ratioP2;P2;SDS_P1;SDS_P2;PMS_P1;PMS_P2;Temp;Humidity;BMP_temperature;BMP_pressure;BME280_temperature;BME280_humidity;BME280_pressure;Samples;Min_cycle;Max_cycle;Signal;HPM_P1;HPM_P2
2021/11/16 00:02:11;;;;;;;40.70;24.60;;;;;;;3.95;80.59;101572.77;103680;1308;108922;-62
2021/11/16 00:04:47;;;;;;;41.30;25.20;;;;;;;3.91;80.57;101576.13;104704;1312;137978;-63
2021/11/16 00:07:19;;;;;;;43.80;24.40;;;;;;;3.86;80.41;101570.20;104516;1312;96149;-63
2021/11/16 00:09:52;;;;;;;38.10;23.20;;;;;;;3.84;80.73;101568.45;103447;1312;138426;-63
2021/11/16 00:12:24;;;;;;;39.50;23.80;;;;;;;3.87;80.78;101569.19;103477;1312;109335;-62
2021/11/16 00:14:56;;;;;;;43.60;24.90;;;;;;;3.89;80.93;101568.53;103794;1312;138642;-63
2021/11/16 00:17:28;;;;;;;37.10;24.20;;;;;;;3.93;80.85;101566.86;103529;1312;97954;-62
2021/11/16 00:20:02;;;;;;;41.40;25.20;;;;;;;3.96;80.87;101564.35;104011;1312;97883;-63
2021/11/16 00:22:34;;;;;;;43.20;25.60;;;;;;;3.97;80.76;101567.64;103455;1312;139451;-62
2021/11/16 00:25:18;;;;;;;39.70;24.50;;;;;;;3.93;80.73;101562.22;103455;1312;107822;-63
2021/11/16 00:27:50;;;;;;;42.20;24.10;;;;;;;3.90;80.87;101554.08;103406;1310;138692;-62
2021/11/16 00:30:23;;;;;;;42.30;24.40;;;;;;;3.87;80.95;101547.52;104789;1316;97265;-63
2021/11/16 00:32:55;;;;;;;41.60;23.70;;;;;;;3.89;80.91;101545.98;104624;1312;139686;-63
2021/11/16 00:35:27;;;;;;;38.10;23.30;;;;;;;3.92;81.01;101544.30;104002;1312;112628;-63
2021/11/16 00:37:59;;;;;;;40.30;24.60;;;;;;;3.93;80.85;101542.95;104748;1312;108330;-63
2021/11/16 00:40:31;;;;;;;41.40;25.90;;;;;;;3.94;80.96;101540.91;104649;1312;138537;-63
2021/11/16 00:43:07;;;;;;;39.80;24.10;;;;;;;3.97;80.91;101538.39;103900;1313;97157;-62
2021/11/16 00:45:41;;;;;;;43.40;25.20;;;;;;;3.99;80.84;101541.00;103362;1312;138398;-62
2021/11/16 00:48:15;;;;;;;43.20;24.70;;;;;;;3.99;80.62;101536.52;104346;1312;112874;-63
2021/11/16 00:50:51;;;;;;;37.30;23.10;;;;;;;3.99;80.81;101532.91;103354;1311;138978;-63
2021/11/16 00:53:28;;;;;;;40.90;24.70;;;;;;;4.00;80.65;101527.06;104805;1312;107233;-63
2021/11/16 00:56:01;;;;;;;42.20;25.90;;;;;;;4.02;80.72;101528.46;104534;1313;95836;-63
2021/11/16 00:58:35;;;;;;;44.70;25.80;;;;;;;4.02;80.76;101524.52;104176;1312;138842;-63
2021/11/16 01:01:07;;;;;;;40.70;24.50;;;;;;;4.01;80.73;101522.61;104315;1312;112457;-63
2021/11/16 01:03:40;;;;;;;40.20;24.50;;;;;;;4.02;80.73;101526.24;103304;1313;139272;-63
2021/11/16 01:06:12;;;;;;;39.40;23.80;;;;;;;4.05;80.78;101523.69;103410;1317;108869;-63
2021/11/16 01:08:44;;;;;;;36.60;22.90;;;;;;;4.09;80.66;101523.23;103276;1309;139012;-63
2021/11/16 01:11:16;;;;;;;42.30;24.80;;;;;;;4.14;80.73;101530.38;103347;1313;98150;-64
2021/11/16 01:13:49;;;;;;;38.20;24.60;;;;;;;4.16;80.60;101522.66;103419;1312;112696;-63
2021/11/16 01:16:22;;;;;;;42.20;25.80;;;;;;;4.13;80.33;101519.85;103183;1312;138882;-63
2021/11/16 01:18:54;;;;;;;40.70;25.40;;;;;;;4.10;80.70;101516.02;103162;1314;108985;-62
2021/11/16 01:21:26;;;;;;;37.60;23.10;;;;;;;4.08;80.54;101520.46;103689;1313;139239;-63
2021/11/16 01:23:58;;;;;;;39.50;24.20;;;;;;;4.07;80.75;101510.12;104087;1313;96112;-63
2021/11/16 01:26:30;;;;;;;42.60;23.00;;;;;;;4.10;80.52;101509.30;103167;1312;274581;-63
2021/11/16 01:29:03;;;;;;;43.70;24.60;;;;;;;4.12;80.48;101501.59;103427;1319;138401;-63
2021/11/16 01:31:35;;;;;;;43.30;24.90;;;;;;;4.14;80.46;101505.59;103372;1312;107123;-62
2021/11/16 01:34:10;;;;;;;41.30;25.00;;;;;;;4.13;80.63;101497.33;103956;1313;139277;-63
2021/11/16 01:36:42;;;;;;;43.70;25.70;;;;;;;4.13;80.37;101496.80;103398;1312;98348;-63
2021/11/16 01:39:14;;;;;;;40.20;24.50;;;;;;;4.13;80.41;101491.45;103289;1312;138402;-63
2021/11/16 01:41:47;;;;;;;41.10;25.30;;;;;;;4.11;80.64;101491.59;103327;1312;108042;-63
2021/11/16 01:44:21;;;;;;;39.30;24.30;;;;;;;4.09;80.56;101481.58;104172;1312;108977;-63
2021/11/16 01:46:53;;;;;;;42.30;24.70;;;;;;;4.06;80.59;101475.34;103281;1313;138845;-63
2021/11/16 01:49:25;;;;;;;43.20;25.80;;;;;;;4.05;80.67;101474.98;103446;1312;98904;-62
2021/11/16 01:51:57;;;;;;;42.90;27.30;;;;;;;4.04;80.86;101466.38;103903;1313;137899;-64
2021/11/16 01:54:29;;;;;;;43.60;25.60;;;;;;;4.02;80.60;101464.27;104771;1313;109213;-63
2021/11/16 01:57:01;;;;;;;40.40;24.30;;;;;;;4.02;80.70;101463.59;104037;1317;141664;-63
2021/11/16 01:59:34;;;;;;;43.10;26.00;;;;;;;4.02;80.77;101456.37;104274;1313;95862;-63
2021/11/16 02:02:07;;;;;;;39.90;24.30;;;;;;;4.04;80.82;101454.50;103326;1312;97852;-63
2021/11/16 02:04:40;;;;;;;44.70;24.80;;;;;;;4.07;81.00;101452.29;104574;1313;138181;-63
2021/11/16 02:07:12;;;;;;;45.60;28.00;;;;;;;4.09;80.70;101446.29;103397;1312;108862;-63
2021/11/16 02:09:45;;;;;;;48.50;27.80;;;;;;;4.10;80.57;101446.98;104588;1312;137945;-62
2021/11/16 02:12:17;;;;;;;41.40;26.10;;;;;;;4.07;80.72;101438.19;104192;1312;97965;-62
2021/11/16 02:14:49;;;;;;;44.90;25.30;;;;;;;4.05;80.58;101438.48;103286;1312;138711;-63
2021/11/16 02:17:21;;;;;;;44.50;25.20;;;;;;;4.04;80.80;101437.98;103446;1312;112500;-63
2021/11/16 02:19:56;;;;;;;41.10;24.60;;;;;;;4.04;80.71;101439.17;103405;1313;107900;-63
2021/11/16 02:22:28;;;;;;;43.50;25.40;;;;;;;4.07;80.97;101435.42;104642;1313;139429;-63
2021/11/16 02:25:01;;;;;;;41.40;25.60;;;;;;;4.13;80.75;101435.85;104713;1312;97378;-63
2021/11/16 02:27:33;;;;;;;49.70;29.20;;;;;;;4.14;80.95;101434.00;103895;1317;138507;-63
2021/11/16 02:30:06;;;;;;;43.40;26.30;;;;;;;4.14;80.70;101431.39;104818;1313;113038;-63
2021/11/16 02:32:38;;;;;;;40.90;25.40;;;;;;;4.12;81.00;101430.14;104005;1312;109117;-63
2021/11/16 02:35:11;;;;;;;41.80;24.80;;;;;;;4.09;80.81;101428.75;103597;1312;138833;-62
2021/11/16 02:37:42;;;;;;;43.80;26.70;;;;;;;4.11;80.87;101427.05;103422;1313;97946;-63
2021/11/16 02:40:16;;;;;;;44.70;27.00;;;;;;;4.14;80.79;101422.11;103320;1317;138647;-62
2021/11/16 02:42:48;;;;;;;44.30;26.10;;;;;;;4.15;80.95;101423.67;104192;1312;110467;-63
2021/11/16 02:45:22;;;;;;;44.60;27.30;;;;;;;4.14;81.01;101422.98;103413;1313;138431;-62
2021/11/16 02:47:55;;;;;;;42.80;26.40;;;;;;;4.13;80.90;101418.48;103507;1312;109672;-63
2021/11/16 02:50:27;;;;;;;48.60;26.30;;;;;;;4.12;80.98;101417.59;104710;1311;96536;-63
2021/11/16 02:52:59;;;;;;;42.80;26.70;;;;;;;4.11;81.10;101418.44;104116;1313;139402;-62
2021/11/16 02:55:31;;;;;;;40.50;25.10;;;;;;;4.11;81.20;101409.48;103504;1313;112840;-63
2021/11/16 02:58:04;;;;;;;38.60;24.60;;;;;;;4.12;81.23;101406.40;103382;1312;139899;-63
2021/11/16 03:00:38;;;;;;;45.20;27.90;;;;;;;4.15;81.30;101408.53;103532;1315;108938;-63
2021/11/16 03:03:10;;;;;;;42.40;27.60;;;;;;;4.16;81.15;101401.83;103227;1314;138854;-63
2021/11/16 03:05:42;;;;;;;46.70;26.70;;;;;;;4.14;81.33;101400.77;104090;1310;97856;-62
2021/11/16 03:08:20;;;;;;;42.80;26.60;;;;;;;4.13;81.35;101397.14;103329;1313;112327;-62
2021/11/16 03:10:55;;;;;;;48.90;27.30;;;;;;;4.15;81.20;101394.06;103661;1312;140650;-63
2021/11/16 03:13:29;;;;;;;43.60;26.50;;;;;;;4.20;81.32;101392.73;103815;1312;108712;-62
2021/11/16 03:16:01;;;;;;;48.40;27.30;;;;;;;4.22;81.49;101396.05;104416;1313;139235;-63
2021/11/16 03:18:34;;;;;;;44.60;27.40;;;;;;;4.22;81.32;101396.20;103470;1314;98005;-63
2021/11/16 03:21:06;;;;;;;51.40;28.90;;;;;;;4.25;81.31;101394.52;103328;1313;137741;-63
2021/11/16 03:23:39;;;;;;;51.00;28.10;;;;;;;4.27;81.24;101395.91;103383;1313;108871;-63
2021/11/16 03:26:12;;;;;;;49.00;28.00;;;;;;;4.28;81.18;101387.14;103333;1312;108427;-62
2021/11/16 03:28:48;;;;;;;46.40;27.80;;;;;;;4.31;81.33;101389.09;103328;1313;139693;-63
2021/11/16 03:31:29;;;;;;;46.40;27.90;;;;;;;4.32;81.15;101386.52;104656;1310;95761;-63
2021/11/16 03:34:01;;;;;;;47.20;28.60;;;;;;;4.36;81.25;101387.59;104647;1307;139351;-63
2021/11/16 03:36:34;;;;;;;49.80;30.70;;;;;;;4.40;81.45;101389.52;104783;1313;108999;-63
2021/11/16 03:39:06;;;;;;;50.70;30.00;;;;;;;4.40;81.34;101391.77;104674;1313;138395;-64
2021/11/16 03:41:38;;;;;;;53.80;29.80;;;;;;;4.40;81.23;101392.29;104558;1316;96237;-63
2021/11/16 03:44:10;;;;;;;47.40;29.00;;;;;;;4.40;80.93;101390.21;104749;1312;95951;-64
2021/11/16 03:46:43;;;;;;;46.40;28.10;;;;;;;4.42;81.15;101386.27;103835;1312;138417;-62
2021/11/16 03:49:15;;;;;;;47.40;27.10;;;;;;;4.46;81.19;101381.31;103426;1313;109090;-63
2021/11/16 03:51:47;;;;;;;44.50;27.60;;;;;;;4.54;81.22;101384.35;103218;1317;139903;-63
2021/11/16 03:54:20;;;;;;;47.70;30.10;;;;;;;4.59;81.13;101387.15;103481;1312;97973;-63
2021/11/16 03:56:59;;;;;;;51.70;31.40;;;;;;;4.59;80.78;101382.67;103329;1312;138596;-63
2021/11/16 03:59:32;;;;;;;51.20;30.60;;;;;;;4.57;81.04;101379.38;104739;1312;112496;-62
2021/11/16 04:02:05;;;;;;;52.20;29.40;;;;;;;4.52;80.65;101380.02;104394;1310;108458;-64
2021/11/16 04:04:37;;;;;;;48.80;28.80;;;;;;;4.49;80.75;101384.83;104586;1311;139322;-63
2021/11/16 04:07:09;;;;;;;49.50;28.90;;;;;;;4.47;80.89;101381.85;104369;1312;96311;-63
2021/11/16 04:09:43;;;;;;;49.70;27.90;;;;;;;4.48;80.97;101378.43;103496;1313;138712;-63
2021/11/16 04:12:16;;;;;;;49.60;29.30;;;;;;;4.52;81.13;101381.75;103408;1313;112024;-62
2021/11/16 04:14:48;;;;;;;49.50;30.50;;;;;;;4.56;80.96;101382.31;104080;1312;138209;-63
2021/11/16 04:17:21;;;;;;;53.80;30.70;;;;;;;4.58;80.84;101385.59;103492;1312;109414;-62
2021/11/16 04:19:53;;;;;;;53.80;30.20;;;;;;;4.55;81.00;101379.54;103420;1312;97875;-63
2021/11/16 04:22:26;;;;;;;48.60;28.00;;;;;;;4.50;81.04;101377.60;103434;1312;138626;-63
2021/11/16 04:24:59;;;;;;;52.10;30.00;;;;;;;4.48;81.12;101370.34;103524;1312;112365;-63
2021/11/16 04:27:32;;;;;;;53.60;30.90;;;;;;;4.49;81.23;101370.36;103306;1312;138995;-63
2021/11/16 04:30:04;;;;;;;50.90;30.20;;;;;;;4.49;81.37;101369.14;103451;1313;108577;-63
2021/11/16 04:32:36;;;;;;;51.40;30.80;;;;;;;4.48;81.27;101367.05;103440;1312;97971;-62
2021/11/16 04:35:11;;;;;;;56.90;32.20;;;;;;;4.48;81.36;101368.59;103304;1312;137797;-62
2021/11/16 04:37:45;;;;;;;57.50;33.20;;;;;;;4.47;81.22;101366.88;104663;1311;112492;-63
2021/11/16 04:40:21;;;;;;;54.30;31.40;;;;;;;4.49;81.34;101368.80;103471;1312;138033;-62
2021/11/16 04:42:56;;;;;;;53.60;30.80;;;;;;;4.48;81.44;101370.84;104718;1312;109041;-63
2021/11/16 04:45:28;;;;;;;51.30;29.70;;;;;;;4.48;81.44;101374.79;103402;1312;139028;-63
2021/11/16 04:48:04;;;;;;;51.90;31.00;;;;;;;4.49;81.21;101374.48;103385;1313;97880;-63
2021/11/16 04:50:47;;;;;;;52.90;30.70;;;;;;;4.52;81.49;101374.35;103512;1312;112433;-64
2021/11/16 05:04:46;;;;;;;59.30;31.70;;;;;;;4.56;81.57;101374.89;102849;1317;138664;-62
2021/11/16 05:07:20;;;;;;;56.10;32.20;;;;;;;4.56;81.76;101379.04;102942;1319;108638;-62
2021/11/16 05:09:55;;;;;;;55.10;32.10;;;;;;;4.59;81.76;101379.41;102807;1317;138531;-63
2021/11/16 05:12:30;;;;;;;62.80;34.80;;;;;;;4.62;81.91;101377.70;102867;1322;98262;-63
2021/11/16 05:15:05;;;;;;;63.30;35.40;;;;;;;4.63;81.66;101375.64;102792;1317;138214;-63
2021/11/16 05:17:37;;;;;;;62.40;34.50;;;;;;;4.62;81.55;101375.98;102858;1316;112549;-63
2021/11/16 05:20:12;;;;;;;62.10;34.90;;;;;;;4.63;81.46;101381.16;102968;1319;108477;-63
2021/11/16 05:22:45;;;;;;;58.00;33.20;;;;;;;4.63;81.78;101383.40;102887;1321;139018;-63
2021/11/16 05:25:17;;;;;;;60.70;34.50;;;;;;;4.66;81.90;101380.33;102934;1318;97861;-63
2021/11/16 05:27:49;;;;;;;58.90;35.80;;;;;;;4.71;81.71;101381.09;102868;1318;138269;-63
2021/11/16 05:30:27;;;;;;;64.40;35.90;;;;;;;4.74;81.59;101379.56;103400;1318;112500;-64
2021/11/16 05:32:59;;;;;;;60.80;36.90;;;;;;;4.77;81.81;101382.52;104042;1315;138295;-64
2021/11/16 05:35:31;;;;;;;64.40;36.90;;;;;;;4.81;81.61;101380.48;104571;1311;109001;-63
2021/11/16 05:38:03;;;;;;;64.10;36.30;;;;;;;4.83;81.57;101376.36;103466;1309;97963;-64
2021/11/16 05:40:36;;;;;;;62.70;35.30;;;;;;;4.84;81.60;101378.28;104673;1312;138969;-64
2021/11/16 05:43:08;;;;;;;63.60;34.90;;;;;;;4.87;81.77;101374.35;104747;1313;113382;-64
2021/11/16 05:45:41;;;;;;;66.30;36.60;;;;;;;4.89;81.41;101377.64;104661;1310;139387;-64
2021/11/16 05:48:13;;;;;;;65.10;36.10;;;;;;;4.91;81.49;101377.13;104669;1313;108837;-64
2021/11/16 05:50:46;;;;;;;68.10;38.70;;;;;;;4.93;81.33;101379.21;104783;1313;96898;-64
2021/11/16 05:53:18;;;;;;;65.40;38.60;;;;;;;4.94;81.19;101383.53;104658;1313;137789;-63
2021/11/16 05:55:51;;;;;;;73.10;38.90;;;;;;;4.95;81.15;101392.33;104042;1312;112684;-63
2021/11/16 05:58:23;;;;;;;69.00;38.70;;;;;;;4.95;81.34;101395.95;104180;1312;138672;-63
2021/11/16 06:00:56;;;;;;;66.40;37.90;;;;;;;4.93;81.38;101394.03;104791;1312;109081;-63
2021/11/16 06:03:28;;;;;;;67.90;39.40;;;;;;;4.91;81.31;101397.98;104263;1313;138895;-62
2021/11/16 06:06:00;;;;;;;68.90;37.50;;;;;;;4.90;81.42;101398.67;104724;1310;96077;-62
2021/11/16 06:08:33;;;;;;;65.30;37.70;;;;;;;4.91;81.53;101403.85;103761;1313;112354;-63
2021/11/16 06:11:06;;;;;;;73.10;40.90;;;;;;;4.94;81.45;101405.08;104377;1312;138177;-62
2021/11/16 06:13:38;;;;;;;77.40;42.60;;;;;;;4.96;81.28;101401.13;103724;1313;108865;-62
2021/11/16 06:16:11;;;;;;;69.70;39.30;;;;;;;4.97;81.38;101401.30;104479;1312;138206;-62
2021/11/16 06:18:48;;;;;;;69.80;40.30;;;;;;;4.97;81.39;101399.41;104711;1316;97390;-62
2021/11/16 06:21:22;;;;;;;70.10;38.60;;;;;;;4.98;81.61;101399.94;104623;1312;139266;-62
2021/11/16 06:23:54;;;;;;;73.80;41.90;;;;;;;4.97;81.66;101401.66;103497;1309;109851;-61
2021/11/16 06:26:32;;;;;;;69.60;40.80;;;;;;;4.99;81.43;101398.39;103784;1312;108888;-62
2021/11/16 06:29:06;;;;;;;72.00;40.10;;;;;;;4.99;81.40;101401.31;104596;1312;138926;-62
2021/11/16 06:31:39;;;;;;;75.60;42.50;;;;;;;4.98;81.30;101404.06;103882;1309;97979;-61
2021/11/16 06:34:12;;;;;;;75.90;43.20;;;;;;;4.97;81.57;101409.59;104605;1312;138600;-63
2021/11/16 06:36:45;;;;;;;71.60;41.10;;;;;;;5.00;81.56;101412.88;104740;1312;109958;-63
2021/11/16 06:39:20;;;;;;;70.50;40.40;;;;;;;5.02;81.41;101405.31;103561;1319;139409;-62
2021/11/16 06:41:55;;;;;;;68.30;40.60;;;;;;;5.05;81.47;101409.50;103630;1316;97974;-62
2021/11/16 06:44:28;;;;;;;73.90;41.20;;;;;;;5.11;81.31;101406.27;103614;1312;97880;-63
2021/11/16 06:47:00;;;;;;;73.10;41.80;;;;;;;5.14;81.25;101402.66;104657;1312;138573;-62
2021/11/16 06:49:33;;;;;;;77.10;43.00;;;;;;;5.14;81.43;101409.22;104688;1313;107849;-62
2021/11/16 06:52:07;;;;;;;74.30;41.80;;;;;;;5.11;81.10;101416.09;104582;1312;142287;-62
2021/11/16 06:54:39;;;;;;;74.30;41.90;;;;;;;5.07;81.15;101415.03;104328;1313;97739;-63
2021/11/16 06:57:12;;;;;;;71.70;40.70;;;;;;;5.02;81.18;101414.96;104665;1313;139719;-63
2021/11/16 06:59:44;;;;;;;71.30;41.30;;;;;;;5.01;81.50;101408.92;104560;1314;111549;-62
2021/11/16 07:02:16;;;;;;;72.10;41.00;;;;;;;5.06;81.48;101406.06;104725;1313;109342;-63
2021/11/16 07:04:48;;;;;;;79.70;43.90;;;;;;;5.08;81.42;101399.87;104022;1313;138270;-63
2021/11/16 07:07:21;;;;;;;74.50;41.10;;;;;;;5.09;81.29;101393.33;104793;1312;96068;-63
2021/11/16 07:09:53;;;;;;;77.20;42.20;;;;;;;5.10;81.38;101391.78;104681;1313;138091;-63
2021/11/16 07:12:26;;;;;;;73.50;42.20;;;;;;;5.09;81.38;101388.50;103781;1311;111753;-63
2021/11/16 07:14:58;;;;;;;76.50;42.10;;;;;;;5.08;81.36;101388.15;103371;1311;139084;-63
2021/11/16 07:17:30;;;;;;;72.90;41.80;;;;;;;5.08;81.32;101382.98;103430;1313;108918;-61
2021/11/16 07:20:02;;;;;;;73.60;42.00;;;;;;;5.09;81.25;101382.46;103467;1311;97856;-62
2021/11/16 07:22:36;;;;;;;78.30;43.10;;;;;;;5.09;81.28;101379.19;104160;1313;138026;-63
2021/11/16 07:25:10;;;;;;;78.70;44.00;;;;;;;5.09;81.38;101381.43;104798;1312;112809;-63
2021/11/16 07:27:45;;;;;;;76.10;40.60;;;;;;;5.07;81.08;101384.69;104480;1312;141570;-63
2021/11/16 07:30:22;;;;;;;78.50;40.50;;;;;;;5.04;81.43;101377.77;104813;1313;109035;-63
2021/11/16 07:32:58;;;;;;;69.90;40.20;;;;;;;5.05;81.09;101372.10;104780;1313;96104;-64
2021/11/16 07:35:32;;;;;;;77.60;40.00;;;;;;;5.08;81.22;101372.63;104619;1313;139474;-63
2021/11/16 07:38:08;;;;;;;80.40;42.10;;;;;;;5.13;81.20;101371.45;104836;1314;111590;-63
2021/11/16 07:40:45;;;;;;;78.80;42.70;;;;;;;5.16;81.36;101363.72;103617;1313;138350;-62
2021/11/16 07:43:20;;;;;;;77.00;42.80;;;;;;;5.19;81.27;101361.32;104757;1313;109035;-63
2021/11/16 07:45:55;;;;;;;74.50;41.80;;;;;;;5.19;81.01;101360.11;103771;1312;138426;-63
2021/11/16 07:48:31;;;;;;;71.10;39.80;;;;;;;5.17;80.93;101355.79;104797;1309;96842;-62
2021/11/16 07:51:06;;;;;;;74.30;40.00;;;;;;;5.18;81.07;101358.04;104219;1310;111578;-62
2021/11/16 07:53:40;;;;;;;70.60;39.90;;;;;;;5.18;80.91;101355.11;104393;1311;137832;-62
2021/11/16 07:56:15;;;;;;;76.30;40.60;;;;;;;5.22;81.05;101352.56;104791;1313;109150;-63
2021/11/16 07:58:52;;;;;;;77.90;43.20;;;;;;;5.24;81.10;101351.21;103782;1313;139952;-63
2021/11/16 08:01:33;;;;;;;79.30;43.10;;;;;;;5.27;81.12;101348.98;104805;1313;96064;-63
2021/11/16 08:04:18;;;;;;;74.30;39.90;;;;;;;5.30;80.94;101350.90;104061;1316;138632;-65
2021/11/16 08:06:57;;;;;;;73.20;39.50;;;;;;;5.30;80.64;101353.14;103589;1312;108093;-62
2021/11/16 08:09:40;;;;;;;70.00;38.90;;;;;;;5.31;80.83;101342.63;104227;1312;141209;-64
2021/11/16 08:12:25;;;;;;;74.00;39.90;;;;;;;5.35;80.59;101338.51;103530;1312;98021;-63
2021/11/16 08:15:03;;;;;;;75.10;40.70;;;;;;;5.35;80.63;101336.61;104295;1312;97886;-63
2021/11/16 08:17:36;;;;;;;70.60;41.80;;;;;;;5.34;80.63;101334.88;103434;1310;138400;-64
2021/11/16 08:20:13;;;;;;;73.80;39.80;;;;;;;5.31;80.47;101335.21;103500;1313;108546;-63
2021/11/16 08:22:46;;;;;;;70.20;39.10;;;;;;;5.31;80.73;101333.83;104184;1313;138953;-64
2021/11/16 08:25:22;;;;;;;72.00;40.20;;;;;;;5.30;80.70;101337.79;104631;1312;96332;-63
2021/11/16 08:27:55;;;;;;;70.40;39.20;;;;;;;5.30;80.71;101333.83;103857;1313;137899;-64
2021/11/16 08:30:29;;;;;;;72.60;41.50;;;;;;;5.33;80.90;101337.45;103805;1312;112135;-62
2021/11/16 08:33:01;;;;;;;71.50;40.40;;;;;;;5.33;80.61;101330.05;103399;1312;109763;-63
2021/11/16 08:35:35;;;;;;;74.00;40.30;;;;;;;5.34;80.49;101333.67;103508;1316;138333;-63
2021/11/16 08:38:11;;;;;;;77.00;42.50;;;;;;;5.34;80.60;101327.98;104154;1316;97948;-63
2021/11/16 08:40:45;;;;;;;68.60;39.40;;;;;;;5.35;80.54;101331.95;103428;1312;138416;-63
2021/11/16 08:43:25;;;;;;;67.40;38.30;;;;;;;5.36;80.54;101326.95;103520;1313;110182;-63
2021/11/16 08:46:03;;;;;;;71.50;39.50;;;;;;;5.39;80.37;101324.40;104250;1311;139304;-65
2021/11/16 08:48:40;;;;;;;71.40;40.30;;;;;;;5.41;80.38;101320.11;103456;1310;108955;-64
2021/11/16 08:51:17;;;;;;;73.50;41.70;;;;;;;5.42;80.32;101315.98;103497;1312;98183;-64
2021/11/16 08:53:49;;;;;;;71.80;40.90;;;;;;;5.41;80.20;101309.59;103293;1312;227001;-64
2021/11/16 08:56:27;;;;;;;70.30;38.00;;;;;;;5.41;80.15;101313.04;104294;1312;111567;-64
2021/11/16 08:59:15;;;;;;;65.20;36.30;;;;;;;5.39;80.29;101307.85;103688;1313;138835;-63
2021/11/16 09:01:58;;;;;;;67.40;37.20;;;;;;;5.40;79.95;101305.95;104190;1312;109068;-64
2021/11/16 09:04:33;;;;;;;74.70;42.00;;;;;;;5.42;80.17;101304.25;103236;1312;138429;-64
2021/11/16 09:07:18;;;;;;;72.30;40.20;;;;;;;5.44;79.90;101305.12;103295;1312;98414;-63
2021/11/16 09:10:00;;;;;;;67.60;38.60;;;;;;;5.45;79.86;101300.81;104173;1309;138181;-64
2021/11/16 09:12:43;;;;;;;77.50;40.60;;;;;;;5.45;79.86;101297.70;104744;1313;108983;-64
2021/11/16 09:15:21;;;;;;;69.80;39.30;;;;;;;5.46;80.09;101297.54;104732;1312;109083;-63
2021/11/16 09:18:09;;;;;;;69.30;37.90;;;;;;;5.46;79.72;101296.84;104616;1312;140370;-64
2021/11/16 09:20:42;;;;;;;69.90;38.20;;;;;;;5.46;79.66;101289.27;104107;1308;99019;-64
2021/11/16 09:23:24;;;;;;;69.90;40.40;;;;;;;5.46;79.66;101287.02;103368;1313;138068;-65
2021/11/16 09:26:08;;;;;;;78.20;42.40;;;;;;;5.49;79.94;101289.43;103179;1312;322440;-63
2021/11/16 09:28:50;;;;;;;70.40;40.40;;;;;;;5.48;79.84;101287.71;104598;1309;138064;-64
2021/11/16 09:31:26;;;;;;;67.80;39.10;;;;;;;5.46;79.67;101293.05;103903;1310;97847;-63
2021/11/16 09:34:02;;;;;;;68.10;38.80;;;;;;;5.42;79.70;101293.04;103115;1315;138957;-63
2021/11/16 09:36:36;;;;;;;69.90;39.30;;;;;;;5.41;79.72;101293.55;103426;1312;112481;-64
2021/11/16 09:39:16;;;;;;;69.50;39.70;;;;;;;5.39;79.75;101291.81;103249;1312;109287;-65
2021/11/16 09:41:52;;;;;;;71.90;39.40;;;;;;;5.38;79.75;101284.20;103426;1315;138115;-65
2021/11/16 09:44:28;;;;;;;74.70;40.10;;;;;;;5.37;79.75;101283.84;103514;1313;97973;-63
2021/11/16 09:47:04;;;;;;;65.10;37.30;;;;;;;5.36;79.71;101284.02;103342;1312;138526;-64
2021/11/16 09:49:38;;;;;;;69.80;38.30;;;;;;;5.35;79.79;101293.66;103366;1316;112711;-64
2021/11/16 09:52:12;;;;;;;69.30;39.30;;;;;;;5.35;80.07;101292.11;103545;1312;139328;-65
2021/11/16 09:54:52;;;;;;;70.40;39.00;;;;;;;5.38;80.08;101282.98;103683;1312;108729;-65
2021/11/16 09:57:26;;;;;;;77.90;42.20;;;;;;;5.42;80.17;101282.69;104110;1313;95637;-63
2021/11/16 10:00:09;;;;;;;73.90;41.00;;;;;;;5.45;79.97;101275.80;103372;1317;137935;-62
2021/11/16 10:02:44;;;;;;;74.90;41.30;;;;;;;5.43;80.01;101274.92;104065;1313;109161;-63
2021/11/16 10:05:20;;;;;;;75.80;41.10;;;;;;;5.42;80.10;101269.92;103564;1322;139843;-63
2021/11/16 10:07:54;;;;;;;74.20;39.50;;;;;;;5.43;79.84;101269.41;104275;1309;107838;-62
2021/11/16 10:10:29;;;;;;;73.30;40.50;;;;;;;5.44;80.05;101268.55;104605;1311;140194;-62
2021/11/16 10:13:04;;;;;;;67.00;38.60;;;;;;;5.47;79.89;101268.05;104704;1316;96259;-62
2021/11/16 10:15:38;;;;;;;67.80;39.60;;;;;;;5.49;79.90;101270.30;103795;1309;139554;-64
2021/11/16 10:18:11;;;;;;;75.50;41.70;;;;;;;5.50;79.91;101273.40;104743;1312;109187;-63
2021/11/16 10:20:46;;;;;;;69.00;41.10;;;;;;;5.49;79.84;101271.84;104370;1313;107993;-63
2021/11/16 10:23:33;;;;;;;78.70;41.30;;;;;;;5.45;79.96;101263.04;103383;1312;138523;-63
2021/11/16 10:26:07;;;;;;;74.30;41.10;;;;;;;5.49;79.80;101261.48;103620;1312;97827;-63
2021/11/16 10:28:43;;;;;;;68.60;39.40;;;;;;;5.51;79.84;101263.05;104127;1313;138738;-63
2021/11/16 10:31:15;;;;;;;70.90;39.40;;;;;;;5.54;79.81;101262.20;104729;1316;109145;-63
2021/11/16 10:33:49;;;;;;;72.10;41.60;;;;;;;5.55;79.73;101262.20;103852;1313;138801;-63
2021/11/16 10:36:22;;;;;;;72.00;40.60;;;;;;;5.54;79.93;101257.36;104741;1312;96916;-63
2021/11/16 10:38:59;;;;;;;79.30;43.90;;;;;;;5.51;79.72;101252.18;104448;1316;97008;-63
2021/11/16 10:41:31;;;;;;;;;;;;;;;5.50;79.82;101253.39;104046;1312;138970;-63
2021/11/16 10:44:06;;;;;;;66.50;37.20;;;;;;;5.50;79.88;101251.66;104657;1309;108974;-64
2021/11/16 10:46:42;;;;;;;63.10;36.20;;;;;;;5.51;79.68;101248.05;104070;1312;138975;-63
2021/11/16 10:49:17;;;;;;;64.20;36.00;;;;;;;5.54;79.22;101250.30;104681;1313;96302;-64
2021/11/16 10:51:51;;;;;;;59.20;35.20;;;;;;;5.55;79.37;101248.92;104504;1312;140626;-63
2021/11/16 10:54:23;;;;;;;64.50;36.50;;;;;;;5.56;78.87;101248.92;104702;1313;112508;-63
2021/11/16 10:57:01;;;;;;;64.00;34.30;;;;;;;5.57;78.73;101245.66;104702;1315;107944;-63
2021/11/16 10:59:35;;;;;;;62.40;33.30;;;;;;;5.58;78.78;101239.30;104598;1312;138239;-63
2021/11/16 11:02:19;;;;;;;60.20;33.60;;;;;;;5.57;78.67;101234.64;103706;1313;97858;-65
2021/11/16 11:04:51;;;;;;;59.90;33.50;;;;;;;5.60;78.67;101238.95;104561;1312;140800;-63
2021/11/16 11:07:36;;;;;;;65.30;35.80;;;;;;;5.63;78.73;101228.79;104635;1316;112788;-63
2021/11/16 11:10:09;;;;;;;64.40;35.50;;;;;;;5.68;78.57;101231.90;104535;1312;138338;-64
2021/11/16 11:12:41;;;;;;;63.90;36.30;;;;;;;5.72;78.78;101229.31;104583;1316;107811;-64
2021/11/16 11:15:34;;;;;;;63.20;36.20;;;;;;;5.74;78.73;101225.71;104423;1317;95957;-64
2021/11/16 11:18:07;;;;;;;63.70;36.00;;;;;;;5.75;78.61;101220.38;104552;1313;137977;-63
2021/11/16 11:20:45;;;;;;;60.60;35.30;;;;;;;5.79;78.38;101220.55;103610;1316;112947;-64
2021/11/16 11:23:30;;;;;;;60.60;34.70;;;;;;;5.81;78.43;101219.35;103981;1319;140504;-63
2021/11/16 11:26:37;;;;;;;61.60;35.60;;;;;;;5.84;78.66;101221.08;103784;1314;105520;-63
2021/11/16 11:29:25;;;;;;;70.70;38.50;;;;;;;5.86;78.13;101215.56;104526;1312;138469;-63
2021/11/16 11:32:03;;;;;;;71.60;37.80;;;;;;;5.87;78.33;101211.77;103853;1312;97861;-63
2021/11/16 11:34:42;;;;;;;81.90;39.40;;;;;;;5.87;78.32;101202.44;104553;1312;138493;-63
2021/11/16 11:37:18;;;;;;;70.60;36.10;;;;;;;5.87;78.30;101198.80;104090;1315;108050;-63
2021/11/16 11:39:59;;;;;;;65.20;36.00;;;;;;;5.88;78.39;101198.98;103604;1312;139358;-63
2021/11/16 11:42:34;;;;;;;61.30;34.90;;;;;;;5.88;78.29;101196.05;104761;1313;97131;-63
2021/11/16 11:45:18;;;;;;;65.70;38.40;;;;;;;5.87;78.36;101194.16;103851;1313;97945;-64
2021/11/16 11:47:53;;;;;;;68.50;38.40;;;;;;;5.87;78.21;101192.95;103999;1313;137837;-64
2021/11/16 11:50:31;;;;;;;70.80;39.30;;;;;;;5.84;78.58;101194.16;103367;1315;108499;-65